Terminal Aerodrome Forecast
Issued by NWS Binghamton, NY

Home | Current Version | Previous Version | Text Only | Print | Product List | Glossary On
Versions: 1 2 3 4 5 6 7 8 9 10 11 12 13 14 15 16 17
000
FTUS41 KBGM 291138
TAFBGM
TAF
KBGM 291138Z 2912/3012 33005KT P6SM SCT015 OVC025
      TEMPO 2912/2915 SCT025 OVC035
     FM291500 32010KT P6SM SCT040
     FM300000 VRB03KT P6SM SKC=

USA.gov is the U.S. government's official web portal to all federal, state and local government web resources and services.